This is the latest recevied weather packets stored in our database for station/object G4WLC-1. If no packets are shown the sender has not sent any weather packets the latest 10 day(s).
| Time | Temp. | Humidity | Pressure | Rain* | Wind** | Luminosity | Snow |
|---|---|---|---|---|---|---|---|
| 1778064481 | 12.78° C | 67% | 1014.8 hPa | 0 mm | - | - | - |
| 1778064181 | 12.78° C | 66% | 1014.8 hPa | 0 mm | - | - | - |
| 1778063881 | 12.78° C | 66% | 1014.8 hPa | 0 mm | - | - | - |
| 1778063581 | 12.22° C | 67% | 1014.7 hPa | 0 mm | - | - | - |
| 1778063281 | 12.22° C | 66% | 1014.8 hPa | 0 mm | - | - | - |
| 1778062981 | 12.22° C | 66% | 1014.8 hPa | 0 mm | - | - | - |
| 1778062681 | 12.22° C | 68% | 1014.8 hPa | 0 mm | - | - | - |
| 1778062381 | 11.67° C | 66% | 1014.6 hPa | 0 mm | - | - | - |
| 1778062081 | 11.67° C | 68% | 1014.8 hPa | 0 mm | - | - | - |
| 1778061781 | 11.67° C | 71% | 1014.8 hPa | 0 mm | - | - | - |
| 1778061481 | 11.11° C | 71% | 1014.6 hPa | 0 mm | - | - | - |
| 1778061181 | 11.11° C | 71% | 1014.6 hPa | 0 mm | - | - | - |
| 1778060881 | 10.56° C | 71% | 1014.6 hPa | 0 mm | - | - | - |
| 1778060581 | 10.56° C | 73% | 1014.5 hPa | 0 mm | - | - | - |
| 1778060282 | 10.56° C | 71% | 1014.6 hPa | 0 mm | - | - | - |
| 1778059981 | 10.56° C | 71% | 1014.5 hPa | 0 mm | - | - | - |
| 1778059682 | 10° C | 71% | 1014.4 hPa | 0 mm | - | - | - |
| 1778059381 | 10° C | 70% | 1014.4 hPa | 0 mm | - | - | - |
| 1778059081 | 10° C | 72% | 1014.4 hPa | 0 mm | - | - | - |
| 1778058781 | 10° C | 72% | 1014.5 hPa | 0 mm | - | - | - |
| 1778058481 | 9.44° C | 73% | 1014.4 hPa | 0 mm | - | - | - |
| 1778058182 | 10° C | 73% | 1014.7 hPa | 0 mm | - | - | - |
| 1778057881 | 9.44° C | 73% | 1014.7 hPa | 0 mm | - | - | - |
| 1778057581 | 10° C | 74% | 1014.7 hPa | 0 mm | - | - | - |
| 1778057282 | 9.44° C | 74% | 1014.7 hPa | 0 mm | - | - | - |
* Rain latest hour (hover to see other rain measurements)
** Current wind speed in m/s (hover to see current wind gust speed)